sensor_id;sensor_type;location;lat;lon;timestamp;P1;durP1;ratioP1;P2;durP2;ratioP2
4486;SDS011;2256;48.740;9.106;2023-02-28T00:02:23;2.35;;;2.00;;
4486;SDS011;2256;48.740;9.106;2023-02-28T00:04:52;4.22;;;2.95;;
4486;SDS011;2256;48.740;9.106;2023-02-28T00:07:26;3.28;;;2.40;;
4486;SDS011;2256;48.740;9.106;2023-02-28T00:09:53;3.65;;;2.50;;
4486;SDS011;2256;48.740;9.106;2023-02-28T00:12:20;13.00;;;2.90;;
4486;SDS011;2256;48.740;9.106;2023-02-28T00:14:46;4.47;;;2.65;;
4486;SDS011;2256;48.740;9.106;2023-02-28T00:17:13;4.93;;;2.90;;
4486;SDS011;2256;48.740;9.106;2023-02-28T00:19:41;3.83;;;2.60;;
4486;SDS011;2256;48.740;9.106;2023-02-28T00:22:09;5.68;;;2.60;;
4486;SDS011;2256;48.740;9.106;2023-02-28T00:24:37;3.55;;;2.40;;
4486;SDS011;2256;48.740;9.106;2023-02-28T00:27:04;6.80;;;2.95;;
4486;SDS011;2256;48.740;9.106;2023-02-28T00:29:31;3.40;;;2.70;;
4486;SDS011;2256;48.740;9.106;2023-02-28T00:31:59;5.88;;;2.55;;
4486;SDS011;2256;48.740;9.106;2023-02-28T00:34:26;5.88;;;2.80;;
4486;SDS011;2256;48.740;9.106;2023-02-28T00:36:52;3.40;;;2.85;;
4486;SDS011;2256;48.740;9.106;2023-02-28T00:39:22;4.95;;;2.92;;
4486;SDS011;2256;48.740;9.106;2023-02-28T00:41:48;2.53;;;2.30;;
4486;SDS011;2256;48.740;9.106;2023-02-28T00:44:15;4.60;;;3.03;;
4486;SDS011;2256;48.740;9.106;2023-02-28T00:46:42;3.97;;;2.47;;
4486;SDS011;2256;48.740;9.106;2023-02-28T00:49:09;2.78;;;2.53;;
4486;SDS011;2256;48.740;9.106;2023-02-28T00:51:35;2.75;;;2.55;;
4486;SDS011;2256;48.740;9.106;2023-02-28T00:54:02;3.30;;;2.60;;
4486;SDS011;2256;48.740;9.106;2023-02-28T00:56:31;3.83;;;2.80;;
4486;SDS011;2256;48.740;9.106;2023-02-28T00:58:57;3.65;;;2.58;;
4486;SDS011;2256;48.740;9.106;2023-02-28T01:01:24;4.68;;;3.20;;
4486;SDS011;2256;48.740;9.106;2023-02-28T01:03:51;5.20;;;2.45;;
4486;SDS011;2256;48.740;9.106;2023-02-28T01:06:18;4.40;;;2.60;;
4486;SDS011;2256;48.740;9.106;2023-02-28T01:08:46;2.60;;;2.10;;
4486;SDS011;2256;48.740;9.106;2023-02-28T01:11:15;6.35;;;3.05;;
4486;SDS011;2256;48.740;9.106;2023-02-28T01:13:45;5.47;;;3.10;;
4486;SDS011;2256;48.740;9.106;2023-02-28T01:16:13;4.60;;;2.65;;
4486;SDS011;2256;48.740;9.106;2023-02-28T01:18:40;4.63;;;2.92;;
4486;SDS011;2256;48.740;9.106;2023-02-28T01:21:08;4.80;;;2.95;;
4486;SDS011;2256;48.740;9.106;2023-02-28T01:23:40;4.15;;;2.80;;
4486;SDS011;2256;48.740;9.106;2023-02-28T01:26:09;3.58;;;2.55;;
4486;SDS011;2256;48.740;9.106;2023-02-28T01:28:38;5.80;;;3.05;;
4486;SDS011;2256;48.740;9.106;2023-02-28T01:31:06;4.72;;;2.90;;
4486;SDS011;2256;48.740;9.106;2023-02-28T01:33:34;2.28;;;2.08;;
4486;SDS011;2256;48.740;9.106;2023-02-28T01:36:01;6.00;;;3.08;;
4486;SDS011;2256;48.740;9.106;2023-02-28T01:38:29;3.35;;;3.03;;
4486;SDS011;2256;48.740;9.106;2023-02-28T01:40:59;5.28;;;2.60;;
4486;SDS011;2256;48.740;9.106;2023-02-28T01:43:27;19.00;;;3.45;;
4486;SDS011;2256;48.740;9.106;2023-02-28T01:45:56;24.80;;;3.45;;
4486;SDS011;2256;48.740;9.106;2023-02-28T01:48:26;8.70;;;3.30;;
4486;SDS011;2256;48.740;9.106;2023-02-28T01:50:56;8.82;;;2.80;;
4486;SDS011;2256;48.740;9.106;2023-02-28T01:53:29;4.55;;;2.55;;
4486;SDS011;2256;48.740;9.106;2023-02-28T01:55:58;3.72;;;3.10;;
4486;SDS011;2256;48.740;9.106;2023-02-28T01:58:25;5.22;;;3.20;;
4486;SDS011;2256;48.740;9.106;2023-02-28T02:00:52;3.90;;;3.47;;
4486;SDS011;2256;48.740;9.106;2023-02-28T02:03:19;4.82;;;3.30;;
4486;SDS011;2256;48.740;9.106;2023-02-28T02:05:48;3.83;;;2.85;;
4486;SDS011;2256;48.740;9.106;2023-02-28T02:08:15;5.60;;;3.70;;
4486;SDS011;2256;48.740;9.106;2023-02-28T02:10:45;6.50;;;3.00;;
4486;SDS011;2256;48.740;9.106;2023-02-28T02:13:21;6.10;;;3.35;;
4486;SDS011;2256;48.740;9.106;2023-02-28T02:16:00;6.88;;;2.85;;
4486;SDS011;2256;48.740;9.106;2023-02-28T02:18:36;4.32;;;3.15;;
4486;SDS011;2256;48.740;9.106;2023-02-28T02:24:20;4.65;;;3.22;;
4486;SDS011;2256;48.740;9.106;2023-02-28T02:27:20;4.68;;;3.22;;
4486;SDS011;2256;48.740;9.106;2023-02-28T02:30:12;3.65;;;3.22;;
4486;SDS011;2256;48.740;9.106;2023-02-28T02:36:18;4.70;;;3.47;;
4486;SDS011;2256;48.740;9.106;2023-02-28T02:38:50;8.95;;;3.45;;
4486;SDS011;2256;48.740;9.106;2023-02-28T02:41:25;8.73;;;3.70;;
4486;SDS011;2256;48.740;9.106;2023-02-28T02:44:01;2.90;;;2.70;;
4486;SDS011;2256;48.740;9.106;2023-02-28T02:46:37;6.10;;;3.90;;
4486;SDS011;2256;48.740;9.106;2023-02-28T02:49:08;3.53;;;3.00;;
4486;SDS011;2256;48.740;9.106;2023-02-28T02:51:40;4.60;;;3.03;;
4486;SDS011;2256;48.740;9.106;2023-02-28T02:54:08;7.82;;;3.70;;
4486;SDS011;2256;48.740;9.106;2023-02-28T02:56:40;9.77;;;3.65;;
4486;SDS011;2256;48.740;9.106;2023-02-28T02:59:12;6.53;;;3.60;;
4486;SDS011;2256;48.740;9.106;2023-02-28T03:01:49;5.32;;;3.45;;
4486;SDS011;2256;48.740;9.106;2023-02-28T03:04:19;9.52;;;4.95;;
4486;SDS011;2256;48.740;9.106;2023-02-28T03:09:20;8.05;;;4.38;;
4486;SDS011;2256;48.740;9.106;2023-02-28T03:11:47;4.13;;;3.47;;
4486;SDS011;2256;48.740;9.106;2023-02-28T03:14:20;7.65;;;4.10;;
4486;SDS011;2256;48.740;9.106;2023-02-28T03:17:02;6.28;;;3.30;;
4486;SDS011;2256;48.740;9.106;2023-02-28T03:19:55;6.35;;;3.95;;
4486;SDS011;2256;48.740;9.106;2023-02-28T03:22:39;6.22;;;4.10;;
4486;SDS011;2256;48.740;9.106;2023-02-28T03:25:18;7.82;;;4.57;;
4486;SDS011;2256;48.740;9.106;2023-02-28T03:27:54;6.03;;;3.90;;
4486;SDS011;2256;48.740;9.106;2023-02-28T03:30:33;4.88;;;3.90;;
4486;SDS011;2256;48.740;9.106;2023-02-28T03:33:06;3.40;;;2.70;;
4486;SDS011;2256;48.740;9.106;2023-02-28T03:35:45;9.32;;;4.10;;
4486;SDS011;2256;48.740;9.106;2023-02-28T03:38:22;4.30;;;3.30;;
4486;SDS011;2256;48.740;9.106;2023-02-28T03:40:55;3.53;;;2.35;;
4486;SDS011;2256;48.740;9.106;2023-02-28T03:43:27;6.20;;;4.40;;
4486;SDS011;2256;48.740;9.106;2023-02-28T03:45:58;8.55;;;4.90;;
4486;SDS011;2256;48.740;9.106;2023-02-28T03:48:31;9.30;;;4.00;;
4486;SDS011;2256;48.740;9.106;2023-02-28T03:51:03;10.32;;;4.63;;
4486;SDS011;2256;48.740;9.106;2023-02-28T03:53:38;3.75;;;3.13;;
4486;SDS011;2256;48.740;9.106;2023-02-28T03:56:11;10.52;;;4.43;;
4486;SDS011;2256;48.740;9.106;2023-02-28T03:58:43;7.35;;;4.35;;
4486;SDS011;2256;48.740;9.106;2023-02-28T04:01:16;5.90;;;3.97;;
4486;SDS011;2256;48.740;9.106;2023-02-28T04:03:47;10.35;;;5.20;;
4486;SDS011;2256;48.740;9.106;2023-02-28T04:06:15;8.93;;;4.70;;
4486;SDS011;2256;48.740;9.106;2023-02-28T04:08:45;10.50;;;4.85;;
4486;SDS011;2256;48.740;9.106;2023-02-28T04:11:16;7.60;;;4.15;;
4486;SDS011;2256;48.740;9.106;2023-02-28T04:13:47;6.80;;;3.80;;
4486;SDS011;2256;48.740;9.106;2023-02-28T04:16:14;4.95;;;3.25;;
4486;SDS011;2256;48.740;9.106;2023-02-28T04:18:41;8.30;;;4.53;;
4486;SDS011;2256;48.740;9.106;2023-02-28T04:21:09;10.10;;;4.95;;
4486;SDS011;2256;48.740;9.106;2023-02-28T04:23:36;6.63;;;4.18;;
4486;SDS011;2256;48.740;9.106;2023-02-28T04:26:04;6.53;;;3.35;;
4486;SDS011;2256;48.740;9.106;2023-02-28T04:28:31;13.88;;;4.90;;
4486;SDS011;2256;48.740;9.106;2023-02-28T04:30:58;10.07;;;4.75;;
4486;SDS011;2256;48.740;9.106;2023-02-28T04:33:27;8.52;;;4.57;;
4486;SDS011;2256;48.740;9.106;2023-02-28T04:35:57;11.23;;;4.95;;
4486;SDS011;2256;48.740;9.106;2023-02-28T04:38:26;9.77;;;4.10;;
4486;SDS011;2256;48.740;9.106;2023-02-28T04:40:56;6.35;;;4.20;;
4486;SDS011;2256;48.740;9.106;2023-02-28T04:43:25;8.30;;;4.97;;
4486;SDS011;2256;48.740;9.106;2023-02-28T04:45:53;10.98;;;4.68;;
4486;SDS011;2256;48.740;9.106;2023-02-28T04:48:22;9.02;;;4.10;;
4486;SDS011;2256;48.740;9.106;2023-02-28T04:50:49;13.15;;;4.75;;
4486;SDS011;2256;48.740;9.106;2023-02-28T04:53:16;7.40;;;4.47;;
4486;SDS011;2256;48.740;9.106;2023-02-28T04:55:43;6.00;;;3.20;;
4486;SDS011;2256;48.740;9.106;2023-02-28T04:58:10;9.48;;;4.70;;
4486;SDS011;2256;48.740;9.106;2023-02-28T05:00:39;6.57;;;4.75;;
4486;SDS011;2256;48.740;9.106;2023-02-28T05:03:05;7.22;;;4.35;;
4486;SDS011;2256;48.740;9.106;2023-02-28T05:05:32;6.80;;;4.85;;
4486;SDS011;2256;48.740;9.106;2023-02-28T05:08:00;6.80;;;4.10;;
4486;SDS011;2256;48.740;9.106;2023-02-28T05:10:27;8.10;;;4.60;;
4486;SDS011;2256;48.740;9.106;2023-02-28T05:12:54;7.55;;;4.40;;
4486;SDS011;2256;48.740;9.106;2023-02-28T05:15:21;5.82;;;4.03;;
4486;SDS011;2256;48.740;9.106;2023-02-28T05:17:49;11.15;;;4.20;;
4486;SDS011;2256;48.740;9.106;2023-02-28T05:20:16;6.32;;;3.97;;
4486;SDS011;2256;48.740;9.106;2023-02-28T05:22:43;16.88;;;4.75;;
4486;SDS011;2256;48.740;9.106;2023-02-28T05:25:11;11.13;;;5.80;;
4486;SDS011;2256;48.740;9.106;2023-02-28T05:27:41;9.13;;;4.70;;
4486;SDS011;2256;48.740;9.106;2023-02-28T05:30:10;5.95;;;4.32;;
4486;SDS011;2256;48.740;9.106;2023-02-28T05:32:38;7.15;;;4.57;;
4486;SDS011;2256;48.740;9.106;2023-02-28T05:35:09;11.05;;;5.10;;
4486;SDS011;2256;48.740;9.106;2023-02-28T05:37:36;7.75;;;4.55;;
4486;SDS011;2256;48.740;9.106;2023-02-28T05:40:04;15.27;;;5.65;;
4486;SDS011;2256;48.740;9.106;2023-02-28T05:42:36;9.57;;;5.20;;
4486;SDS011;2256;48.740;9.106;2023-02-28T05:45:03;8.25;;;4.93;;
4486;SDS011;2256;48.740;9.106;2023-02-28T05:47:33;9.68;;;4.72;;
4486;SDS011;2256;48.740;9.106;2023-02-28T05:50:00;6.95;;;4.53;;
4486;SDS011;2256;48.740;9.106;2023-02-28T05:52:28;8.25;;;5.05;;
4486;SDS011;2256;48.740;9.106;2023-02-28T05:54:56;10.07;;;4.50;;
4486;SDS011;2256;48.740;9.106;2023-02-28T05:57:27;9.73;;;4.88;;
4486;SDS011;2256;48.740;9.106;2023-02-28T05:59:53;13.75;;;5.30;;
4486;SDS011;2256;48.740;9.106;2023-02-28T06:02:21;12.05;;;5.40;;
4486;SDS011;2256;48.740;9.106;2023-02-28T06:04:48;9.45;;;5.32;;
4486;SDS011;2256;48.740;9.106;2023-02-28T06:07:16;9.10;;;6.13;;
4486;SDS011;2256;48.740;9.106;2023-02-28T06:09:45;12.40;;;5.07;;
4486;SDS011;2256;48.740;9.106;2023-02-28T06:12:12;16.08;;;4.93;;
4486;SDS011;2256;48.740;9.106;2023-02-28T06:14:39;9.35;;;4.90;;
4486;SDS011;2256;48.740;9.106;2023-02-28T06:17:06;10.65;;;5.72;;
4486;SDS011;2256;48.740;9.106;2023-02-28T06:19:36;11.65;;;6.05;;
4486;SDS011;2256;48.740;9.106;2023-02-28T06:22:05;12.65;;;5.57;;
4486;SDS011;2256;48.740;9.106;2023-02-28T06:24:32;11.80;;;6.20;;
4486;SDS011;2256;48.740;9.106;2023-02-28T06:27:01;10.10;;;5.55;;
4486;SDS011;2256;48.740;9.106;2023-02-28T06:29:30;9.23;;;5.35;;
4486;SDS011;2256;48.740;9.106;2023-02-28T06:31:58;14.00;;;5.93;;
4486;SDS011;2256;48.740;9.106;2023-02-28T06:34:27;14.25;;;6.32;;
4486;SDS011;2256;48.740;9.106;2023-02-28T06:36:54;10.43;;;5.47;;
4486;SDS011;2256;48.740;9.106;2023-02-28T06:39:21;15.93;;;6.07;;
4486;SDS011;2256;48.740;9.106;2023-02-28T06:41:50;14.65;;;5.82;;
4486;SDS011;2256;48.740;9.106;2023-02-28T06:44:19;13.82;;;6.55;;
4486;SDS011;2256;48.740;9.106;2023-02-28T06:46:52;14.82;;;5.45;;
4486;SDS011;2256;48.740;9.106;2023-02-28T06:49:20;12.85;;;6.30;;
4486;SDS011;2256;48.740;9.106;2023-02-28T06:51:48;14.40;;;5.72;;
4486;SDS011;2256;48.740;9.106;2023-02-28T06:54:15;9.05;;;6.18;;
4486;SDS011;2256;48.740;9.106;2023-02-28T06:56:41;11.20;;;5.80;;
4486;SDS011;2256;48.740;9.106;2023-02-28T06:59:08;9.95;;;5.00;;
4486;SDS011;2256;48.740;9.106;2023-02-28T07:01:37;10.23;;;6.22;;
4486;SDS011;2256;48.740;9.106;2023-02-28T07:04:05;19.52;;;5.97;;
4486;SDS011;2256;48.740;9.106;2023-02-28T07:06:33;12.63;;;6.40;;
4486;SDS011;2256;48.740;9.106;2023-02-28T07:09:00;10.88;;;5.97;;
4486;SDS011;2256;48.740;9.106;2023-02-28T07:11:29;14.43;;;5.25;;
4486;SDS011;2256;48.740;9.106;2023-02-28T07:13:57;8.05;;;4.88;;
4486;SDS011;2256;48.740;9.106;2023-02-28T07:16:24;12.93;;;6.32;;
4486;SDS011;2256;48.740;9.106;2023-02-28T07:18:53;11.95;;;6.35;;
4486;SDS011;2256;48.740;9.106;2023-02-28T07:21:20;11.85;;;6.05;;
4486;SDS011;2256;48.740;9.106;2023-02-28T07:23:48;15.77;;;6.40;;
4486;SDS011;2256;48.740;9.106;2023-02-28T07:26:16;11.77;;;6.03;;
4486;SDS011;2256;48.740;9.106;2023-02-28T07:28:46;13.27;;;6.07;;
4486;SDS011;2256;48.740;9.106;2023-02-28T07:31:14;19.65;;;6.70;;
4486;SDS011;2256;48.740;9.106;2023-02-28T07:33:42;13.63;;;6.80;;
4486;SDS011;2256;48.740;9.106;2023-02-28T07:36:11;9.75;;;5.68;;
4486;SDS011;2256;48.740;9.106;2023-02-28T07:38:41;19.13;;;6.70;;
4486;SDS011;2256;48.740;9.106;2023-02-28T07:41:08;13.23;;;6.18;;
4486;SDS011;2256;48.740;9.106;2023-02-28T07:43:35;13.90;;;6.60;;
4486;SDS011;2256;48.740;9.106;2023-02-28T07:46:02;15.20;;;6.47;;
4486;SDS011;2256;48.740;9.106;2023-02-28T07:48:30;15.65;;;6.70;;
4486;SDS011;2256;48.740;9.106;2023-02-28T07:50:58;16.45;;;7.32;;
4486;SDS011;2256;48.740;9.106;2023-02-28T07:53:27;10.85;;;5.30;;
4486;SDS011;2256;48.740;9.106;2023-02-28T07:55:55;13.30;;;6.78;;
4486;SDS011;2256;48.740;9.106;2023-02-28T07:58:22;12.18;;;6.65;;
4486;SDS011;2256;48.740;9.106;2023-02-28T08:00:49;14.90;;;7.30;;
4486;SDS011;2256;48.740;9.106;2023-02-28T08:03:16;12.90;;;5.85;;
4486;SDS011;2256;48.740;9.106;2023-02-28T08:05:43;13.43;;;5.40;;
4486;SDS011;2256;48.740;9.106;2023-02-28T08:08:10;18.80;;;7.25;;
4486;SDS011;2256;48.740;9.106;2023-02-28T08:10:39;13.55;;;7.32;;
4486;SDS011;2256;48.740;9.106;2023-02-28T08:13:06;11.40;;;6.70;;
4486;SDS011;2256;48.740;9.106;2023-02-28T08:15:33;16.15;;;6.97;;
4486;SDS011;2256;48.740;9.106;2023-02-28T08:18:01;15.63;;;7.88;;
4486;SDS011;2256;48.740;9.106;2023-02-28T08:20:28;13.23;;;7.35;;
4486;SDS011;2256;48.740;9.106;2023-02-28T08:22:55;12.05;;;5.65;;
4486;SDS011;2256;48.740;9.106;2023-02-28T08:25:22;12.65;;;5.70;;
4486;SDS011;2256;48.740;9.106;2023-02-28T08:27:51;10.80;;;5.65;;
4486;SDS011;2256;48.740;9.106;2023-02-28T08:30:19;15.55;;;7.13;;
4486;SDS011;2256;48.740;9.106;2023-02-28T08:32:46;13.18;;;6.70;;
4486;SDS011;2256;48.740;9.106;2023-02-28T08:35:13;20.48;;;7.80;;
4486;SDS011;2256;48.740;9.106;2023-02-28T08:37:41;16.05;;;7.75;;
4486;SDS011;2256;48.740;9.106;2023-02-28T08:40:08;12.82;;;6.97;;
4486;SDS011;2256;48.740;9.106;2023-02-28T08:42:38;12.48;;;6.32;;
4486;SDS011;2256;48.740;9.106;2023-02-28T08:45:07;16.15;;;6.60;;
4486;SDS011;2256;48.740;9.106;2023-02-28T08:47:34;13.50;;;6.13;;
4486;SDS011;2256;48.740;9.106;2023-02-28T08:50:02;14.05;;;7.88;;
4486;SDS011;2256;48.740;9.106;2023-02-28T08:52:30;16.85;;;7.90;;
4486;SDS011;2256;48.740;9.106;2023-02-28T08:54:57;16.25;;;7.53;;
4486;SDS011;2256;48.740;9.106;2023-02-28T08:57:25;13.15;;;8.20;;
4486;SDS011;2256;48.740;9.106;2023-02-28T08:59:52;13.02;;;6.80;;
4486;SDS011;2256;48.740;9.106;2023-02-28T09:02:20;13.02;;;6.97;;
4486;SDS011;2256;48.740;9.106;2023-02-28T09:04:47;18.23;;;7.45;;
4486;SDS011;2256;48.740;9.106;2023-02-28T09:07:14;12.30;;;7.65;;
4486;SDS011;2256;48.740;9.106;2023-02-28T09:09:41;16.48;;;8.02;;
4486;SDS011;2256;48.740;9.106;2023-02-28T09:12:18;14.00;;;6.63;;
4486;SDS011;2256;48.740;9.106;2023-02-28T09:14:45;16.83;;;8.57;;
4486;SDS011;2256;48.740;9.106;2023-02-28T09:17:12;12.35;;;6.88;;
4486;SDS011;2256;48.740;9.106;2023-02-28T09:19:40;14.90;;;7.45;;
4486;SDS011;2256;48.740;9.106;2023-02-28T09:22:07;19.08;;;8.38;;
4486;SDS011;2256;48.740;9.106;2023-02-28T09:24:35;23.40;;;8.77;;
4486;SDS011;2256;48.740;9.106;2023-02-28T09:27:03;17.50;;;8.63;;
4486;SDS011;2256;48.740;9.106;2023-02-28T09:29:30;16.52;;;8.63;;
4486;SDS011;2256;48.740;9.106;2023-02-28T09:31:57;20.17;;;7.97;;
4486;SDS011;2256;48.740;9.106;2023-02-28T09:34:24;14.90;;;7.75;;
4486;SDS011;2256;48.740;9.106;2023-02-28T09:36:52;14.88;;;7.70;;
4486;SDS011;2256;48.740;9.106;2023-02-28T09:39:20;13.25;;;7.20;;
4486;SDS011;2256;48.740;9.106;2023-02-28T09:41:47;19.98;;;8.50;;
4486;SDS011;2256;48.740;9.106;2023-02-28T09:44:17;15.93;;;7.88;;
4486;SDS011;2256;48.740;9.106;2023-02-28T09:46:49;17.08;;;8.45;;
4486;SDS011;2256;48.740;9.106;2023-02-28T09:49:22;18.20;;;7.93;;
4486;SDS011;2256;48.740;9.106;2023-02-28T09:51:53;18.90;;;7.63;;
4486;SDS011;2256;48.740;9.106;2023-02-28T09:54:24;14.88;;;7.32;;
4486;SDS011;2256;48.740;9.106;2023-02-28T09:56:55;15.65;;;8.52;;
4486;SDS011;2256;48.740;9.106;2023-02-28T09:59:39;17.88;;;7.90;;
4486;SDS011;2256;48.740;9.106;2023-02-28T10:05:07;13.23;;;7.53;;
4486;SDS011;2256;48.740;9.106;2023-02-28T10:07:45;17.42;;;8.48;;
4486;SDS011;2256;48.740;9.106;2023-02-28T10:10:21;18.15;;;8.50;;
4486;SDS011;2256;48.740;9.106;2023-02-28T10:12:53;14.90;;;7.55;;
4486;SDS011;2256;48.740;9.106;2023-02-28T10:15:25;16.10;;;9.02;;
4486;SDS011;2256;48.740;9.106;2023-02-28T10:17:56;16.98;;;8.13;;
4486;SDS011;2256;48.740;9.106;2023-02-28T10:20:25;17.45;;;8.57;;
4486;SDS011;2256;48.740;9.106;2023-02-28T10:22:58;15.32;;;7.90;;
4486;SDS011;2256;48.740;9.106;2023-02-28T10:25:32;18.25;;;8.45;;
4486;SDS011;2256;48.740;9.106;2023-02-28T10:28:04;11.90;;;7.43;;
4486;SDS011;2256;48.740;9.106;2023-02-28T10:30:36;22.50;;;7.75;;
4486;SDS011;2256;48.740;9.106;2023-02-28T10:33:08;10.48;;;6.60;;
4486;SDS011;2256;48.740;9.106;2023-02-28T10:35:43;15.98;;;7.97;;
4486;SDS011;2256;48.740;9.106;2023-02-28T10:38:14;14.35;;;7.20;;
4486;SDS011;2256;48.740;9.106;2023-02-28T10:40:42;18.65;;;8.20;;
4486;SDS011;2256;48.740;9.106;2023-02-28T10:43:17;40.53;;;8.57;;
4486;SDS011;2256;48.740;9.106;2023-02-28T10:45:52;12.52;;;7.40;;
4486;SDS011;2256;48.740;9.106;2023-02-28T10:48:36;15.13;;;7.82;;
4486;SDS011;2256;48.740;9.106;2023-02-28T10:51:04;14.40;;;7.45;;
4486;SDS011;2256;48.740;9.106;2023-02-28T10:53:39;31.42;;;8.90;;
4486;SDS011;2256;48.740;9.106;2023-02-28T10:56:15;15.48;;;8.18;;
4486;SDS011;2256;48.740;9.106;2023-02-28T10:58:49;17.60;;;8.57;;
4486;SDS011;2256;48.740;9.106;2023-02-28T11:01:18;21.88;;;8.98;;
4486;SDS011;2256;48.740;9.106;2023-02-28T11:03:47;16.10;;;8.20;;
4486;SDS011;2256;48.740;9.106;2023-02-28T11:06:16;9.70;;;5.80;;
4486;SDS011;2256;48.740;9.106;2023-02-28T11:08:47;17.73;;;9.25;;
4486;SDS011;2256;48.740;9.106;2023-02-28T11:11:16;16.60;;;8.55;;
4486;SDS011;2256;48.740;9.106;2023-02-28T11:13:44;15.75;;;8.50;;
4486;SDS011;2256;48.740;9.106;2023-02-28T11:16:13;17.33;;;9.05;;
4486;SDS011;2256;48.740;9.106;2023-02-28T11:18:42;13.48;;;8.55;;
4486;SDS011;2256;48.740;9.106;2023-02-28T11:21:18;48.08;;;10.60;;
4486;SDS011;2256;48.740;9.106;2023-02-28T11:23:51;28.65;;;9.55;;
4486;SDS011;2256;48.740;9.106;2023-02-28T11:26:36;25.98;;;9.70;;
4486;SDS011;2256;48.740;9.106;2023-02-28T11:29:17;22.38;;;10.20;;
4486;SDS011;2256;48.740;9.106;2023-02-28T11:32:05;15.40;;;9.18;;
4486;SDS011;2256;48.740;9.106;2023-02-28T11:34:39;16.05;;;8.30;;
4486;SDS011;2256;48.740;9.106;2023-02-28T11:37:09;15.82;;;8.43;;
4486;SDS011;2256;48.740;9.106;2023-02-28T11:39:40;14.95;;;9.38;;
4486;SDS011;2256;48.740;9.106;2023-02-28T11:42:14;20.10;;;9.13;;
4486;SDS011;2256;48.740;9.106;2023-02-28T11:45:19;17.88;;;8.45;;
4486;SDS011;2256;48.740;9.106;2023-02-28T11:47:55;18.92;;;8.63;;
4486;SDS011;2256;48.740;9.106;2023-02-28T11:50:40;20.60;;;8.45;;
4486;SDS011;2256;48.740;9.106;2023-02-28T11:53:22;16.90;;;8.32;;
4486;SDS011;2256;48.740;9.106;2023-02-28T11:56:08;14.15;;;8.07;;
4486;SDS011;2256;48.740;9.106;2023-02-28T11:58:45;17.95;;;8.75;;
4486;SDS011;2256;48.740;9.106;2023-02-28T12:01:22;15.10;;;8.52;;
4486;SDS011;2256;48.740;9.106;2023-02-28T12:03:58;15.55;;;8.68;;
4486;SDS011;2256;48.740;9.106;2023-02-28T12:06:36;18.98;;;8.10;;
4486;SDS011;2256;48.740;9.106;2023-02-28T12:09:14;14.73;;;8.32;;
4486;SDS011;2256;48.740;9.106;2023-02-28T12:11:53;27.00;;;9.45;;
4486;SDS011;2256;48.740;9.106;2023-02-28T12:14:30;18.67;;;8.50;;
4486;SDS011;2256;48.740;9.106;2023-02-28T12:17:20;17.95;;;9.23;;
4486;SDS011;2256;48.740;9.106;2023-02-28T12:19:58;13.50;;;7.35;;
4486;SDS011;2256;48.740;9.106;2023-02-28T12:22:35;15.68;;;7.63;;
4486;SDS011;2256;48.740;9.106;2023-02-28T12:28:08;16.20;;;8.20;;
4486;SDS011;2256;48.740;9.106;2023-02-28T12:30:38;18.92;;;9.27;;
4486;SDS011;2256;48.740;9.106;2023-02-28T12:33:14;17.10;;;8.63;;
4486;SDS011;2256;48.740;9.106;2023-02-28T12:35:47;21.23;;;9.15;;
4486;SDS011;2256;48.740;9.106;2023-02-28T12:38:17;19.02;;;9.18;;
4486;SDS011;2256;48.740;9.106;2023-02-28T12:40:48;16.17;;;9.02;;
4486;SDS011;2256;48.740;9.106;2023-02-28T12:43:20;16.30;;;7.75;;
4486;SDS011;2256;48.740;9.106;2023-02-28T12:45:52;20.45;;;8.55;;
4486;SDS011;2256;48.740;9.106;2023-02-28T12:48:24;14.25;;;8.18;;
4486;SDS011;2256;48.740;9.106;2023-02-28T12:50:55;14.63;;;6.70;;
4486;SDS011;2256;48.740;9.106;2023-02-28T12:53:24;13.25;;;7.50;;
4486;SDS011;2256;48.740;9.106;2023-02-28T12:56:00;17.35;;;8.05;;
4486;SDS011;2256;48.740;9.106;2023-02-28T12:58:37;17.63;;;8.57;;
4486;SDS011;2256;48.740;9.106;2023-02-28T13:01:28;15.15;;;8.20;;
4486;SDS011;2256;48.740;9.106;2023-02-28T13:07:16;17.17;;;9.13;;
4486;SDS011;2256;48.740;9.106;2023-02-28T13:10:03;13.70;;;7.00;;
4486;SDS011;2256;48.740;9.106;2023-02-28T13:12:32;16.25;;;8.65;;
4486;SDS011;2256;48.740;9.106;2023-02-28T13:15:04;11.32;;;8.27;;
4486;SDS011;2256;48.740;9.106;2023-02-28T13:17:37;15.80;;;8.27;;
4486;SDS011;2256;48.740;9.106;2023-02-28T13:20:13;14.00;;;8.05;;
4486;SDS011;2256;48.740;9.106;2023-02-28T13:22:43;14.10;;;8.90;;
4486;SDS011;2256;48.740;9.106;2023-02-28T13:34:34;16.88;;;9.63;;
4486;SDS011;2256;48.740;9.106;2023-02-28T13:40:00;14.27;;;8.10;;
4486;SDS011;2256;48.740;9.106;2023-02-28T13:42:52;19.48;;;7.97;;
4486;SDS011;2256;48.740;9.106;2023-02-28T13:45:23;13.30;;;8.10;;
4486;SDS011;2256;48.740;9.106;2023-02-28T13:47:52;19.65;;;9.27;;
4486;SDS011;2256;48.740;9.106;2023-02-28T13:50:30;16.20;;;9.30;;
4486;SDS011;2256;48.740;9.106;2023-02-28T13:53:11;15.95;;;9.00;;
4486;SDS011;2256;48.740;9.106;2023-02-28T13:56:06;20.20;;;8.70;;
4486;SDS011;2256;48.740;9.106;2023-02-28T13:58:46;15.80;;;7.95;;
4486;SDS011;2256;48.740;9.106;2023-02-28T14:01:26;19.23;;;8.77;;
4486;SDS011;2256;48.740;9.106;2023-02-28T14:04:14;16.38;;;8.60;;
4486;SDS011;2256;48.740;9.106;2023-02-28T14:07:02;21.90;;;8.10;;
4486;SDS011;2256;48.740;9.106;2023-02-28T14:09:30;16.73;;;8.65;;
4486;SDS011;2256;48.740;9.106;2023-02-28T14:15:00;18.05;;;9.00;;
4486;SDS011;2256;48.740;9.106;2023-02-28T14:17:27;14.73;;;7.80;;
4486;SDS011;2256;48.740;9.106;2023-02-28T14:19:54;17.10;;;8.27;;
4486;SDS011;2256;48.740;9.106;2023-02-28T14:22:40;17.85;;;9.10;;
4486;SDS011;2256;48.740;9.106;2023-02-28T14:25:18;19.30;;;8.70;;
4486;SDS011;2256;48.740;9.106;2023-02-28T14:27:55;19.88;;;9.20;;
4486;SDS011;2256;48.740;9.106;2023-02-28T14:33:46;15.32;;;7.90;;
4486;SDS011;2256;48.740;9.106;2023-02-28T14:36:27;11.38;;;7.40;;
4486;SDS011;2256;48.740;9.106;2023-02-28T14:39:00;14.23;;;8.35;;
4486;SDS011;2256;48.740;9.106;2023-02-28T14:41:32;15.90;;;8.90;;
4486;SDS011;2256;48.740;9.106;2023-02-28T14:44:02;13.68;;;7.72;;
4486;SDS011;2256;48.740;9.106;2023-02-28T14:46:40;21.15;;;8.70;;
4486;SDS011;2256;48.740;9.106;2023-02-28T14:49:11;17.05;;;8.98;;
4486;SDS011;2256;48.740;9.106;2023-02-28T14:51:42;17.80;;;8.73;;
4486;SDS011;2256;48.740;9.106;2023-02-28T14:54:13;14.18;;;8.90;;
4486;SDS011;2256;48.740;9.106;2023-02-28T14:56:42;13.57;;;7.47;;
4486;SDS011;2256;48.740;9.106;2023-02-28T14:59:23;15.55;;;9.05;;
4486;SDS011;2256;48.740;9.106;2023-02-28T15:04:56;13.52;;;8.20;;
4486;SDS011;2256;48.740;9.106;2023-02-28T15:07:24;15.18;;;7.90;;
4486;SDS011;2256;48.740;9.106;2023-02-28T15:10:09;13.70;;;7.72;;
4486;SDS011;2256;48.740;9.106;2023-02-28T15:12:37;15.02;;;7.55;;
4486;SDS011;2256;48.740;9.106;2023-02-28T15:15:13;16.05;;;8.02;;
4486;SDS011;2256;48.740;9.106;2023-02-28T15:17:41;15.25;;;8.38;;
4486;SDS011;2256;48.740;9.106;2023-02-28T15:20:11;14.95;;;9.10;;
4486;SDS011;2256;48.740;9.106;2023-02-28T15:22:40;13.77;;;8.38;;
4486;SDS011;2256;48.740;9.106;2023-02-28T15:25:09;15.65;;;8.70;;
4486;SDS011;2256;48.740;9.106;2023-02-28T15:27:40;18.23;;;9.52;;
4486;SDS011;2256;48.740;9.106;2023-02-28T15:30:14;16.90;;;9.25;;
4486;SDS011;2256;48.740;9.106;2023-02-28T15:32:43;14.10;;;7.90;;
4486;SDS011;2256;48.740;9.106;2023-02-28T15:35:18;18.88;;;9.50;;
4486;SDS011;2256;48.740;9.106;2023-02-28T15:37:47;17.88;;;8.65;;
4486;SDS011;2256;48.740;9.106;2023-02-28T15:40:22;14.77;;;7.43;;
4486;SDS011;2256;48.740;9.106;2023-02-28T15:42:58;18.35;;;7.95;;
4486;SDS011;2256;48.740;9.106;2023-02-28T15:45:32;15.07;;;8.57;;
4486;SDS011;2256;48.740;9.106;2023-02-28T15:48:03;13.45;;;8.00;;
4486;SDS011;2256;48.740;9.106;2023-02-28T15:50:31;14.27;;;7.70;;
4486;SDS011;2256;48.740;9.106;2023-02-28T15:52:58;15.10;;;8.48;;
4486;SDS011;2256;48.740;9.106;2023-02-28T15:55:29;15.73;;;7.80;;
4486;SDS011;2256;48.740;9.106;2023-02-28T15:57:57;12.70;;;7.65;;
4486;SDS011;2256;48.740;9.106;2023-02-28T16:00:28;17.60;;;8.25;;
4486;SDS011;2256;48.740;9.106;2023-02-28T16:02:57;16.55;;;9.05;;
4486;SDS011;2256;48.740;9.106;2023-02-28T16:05:25;18.52;;;9.30;;
4486;SDS011;2256;48.740;9.106;2023-02-28T16:07:55;11.57;;;7.50;;
4486;SDS011;2256;48.740;9.106;2023-02-28T16:10:23;15.90;;;8.38;;